createdAt,value
2023-05-16T00:02:17.185Z,23.6
2023-05-16T00:09:49.616Z,23.6
2023-05-16T00:17:22.122Z,23.6
2023-05-16T00:24:54.611Z,23.6
2023-05-16T00:32:27.135Z,23.6
2023-05-16T00:39:59.620Z,23.6
2023-05-16T00:47:32.113Z,23.5
2023-05-16T00:55:04.575Z,23.6
2023-05-16T01:02:37.040Z,23.5
2023-05-16T01:10:09.557Z,23.5
2023-05-16T01:17:42.072Z,23.5
2023-05-16T01:25:14.718Z,23.5
2023-05-16T01:32:47.211Z,23.5
2023-05-16T01:40:19.665Z,23.5
2023-05-16T01:47:52.090Z,23.5
2023-05-16T01:55:24.803Z,23.4
2023-05-16T02:02:57.500Z,23.4
2023-05-16T02:10:30.121Z,23.4
2023-05-16T02:18:02.624Z,23.4
2023-05-16T02:25:35.129Z,23.4
2023-05-16T02:33:07.676Z,23.4
2023-05-16T02:40:40.092Z,23.4
2023-05-16T02:48:12.698Z,23.4
2023-05-16T02:55:45.160Z,23.4
2023-05-16T03:03:17.717Z,23.4
2023-05-16T03:10:50.185Z,23.3
2023-05-16T03:18:22.633Z,23.4
2023-05-16T03:25:55.056Z,23.4
2023-05-16T03:33:27.517Z,23.3
2023-05-16T03:40:59.934Z,23.3
2023-05-16T03:48:32.346Z,23.3
2023-05-16T03:56:04.746Z,23.3
2023-05-16T04:03:37.170Z,23.3
2023-05-16T04:11:09.588Z,23.3
2023-05-16T04:18:42.018Z,23.2
2023-05-16T04:22:44.461Z,23.3
2023-05-16T04:23:31.905Z,23.3
2023-05-16T04:24:19.322Z,23.3
2023-05-16T04:25:06.749Z,23.3
2023-05-16T04:25:54.177Z,23.3
2023-05-16T04:26:41.584Z,23.2
2023-05-16T04:27:29.005Z,23.2
2023-05-16T04:28:16.410Z,23.1
2023-05-16T04:29:03.812Z,23.0
2023-05-16T04:29:51.226Z,23.0
2023-05-16T04:30:38.645Z,22.9
2023-05-16T04:31:26.091Z,22.8
2023-05-16T04:32:13.498Z,22.8
2023-05-16T04:33:00.933Z,22.8
2023-05-16T04:33:48.367Z,22.7
2023-05-16T04:34:36.839Z,22.7
2023-05-16T04:35:26.464Z,22.6
2023-05-16T04:36:14.015Z,22.6
2023-05-16T04:37:01.584Z,22.6
2023-05-16T04:37:49.200Z,22.6
2023-05-16T04:38:36.633Z,22.5
2023-05-16T04:39:24.140Z,22.5
2023-05-16T04:40:11.605Z,22.5
2023-05-16T04:40:59.020Z,22.5
2023-05-16T04:41:46.472Z,22.5
2023-05-16T04:42:33.902Z,22.5
2023-05-16T04:43:21.308Z,22.4
2023-05-16T04:44:08.744Z,22.4
2023-05-16T04:44:56.206Z,22.3
2023-05-16T04:45:43.676Z,22.3
2023-05-16T04:46:31.428Z,22.3
2023-05-16T04:47:19.123Z,22.2
2023-05-16T04:48:06.617Z,22.2
2023-05-16T04:48:54.538Z,22.2
2023-05-16T04:49:41.978Z,22.2
2023-05-16T04:50:29.532Z,22.1
2023-05-16T04:51:16.981Z,22.1
2023-05-16T04:52:04.441Z,22.1
2023-05-16T04:52:51.882Z,22.0
2023-05-16T04:53:39.324Z,22.0
2023-05-16T04:54:26.744Z,22.0
2023-05-16T04:55:14.160Z,22.0
2023-05-16T04:56:01.579Z,22.0
2023-05-16T04:56:49.025Z,22.0
2023-05-16T04:57:36.480Z,22.0
2023-05-16T04:58:23.892Z,22.0
2023-05-16T04:59:11.340Z,22.0
2023-05-16T04:59:58.770Z,22.0
2023-05-16T05:00:46.203Z,22.1
2023-05-16T05:01:33.673Z,22.1
2023-05-16T05:02:21.331Z,22.1
2023-05-16T05:03:08.753Z,22.0
2023-05-16T05:03:56.208Z,21.9
2023-05-16T05:04:43.773Z,21.8
2023-05-16T05:05:31.906Z,21.6
2023-05-16T05:06:19.708Z,21.5
2023-05-16T05:07:07.108Z,21.4
2023-05-16T05:07:54.532Z,21.3
2023-05-16T05:08:42.013Z,21.3
2023-05-16T05:09:29.537Z,21.3
2023-05-16T05:10:16.984Z,21.3
2023-05-16T05:11:04.404Z,21.4
2023-05-16T05:11:52.084Z,21.4
2023-05-16T05:12:39.544Z,21.4
2023-05-16T05:13:26.952Z,21.4
2023-05-16T05:14:14.395Z,21.4
2023-05-16T05:15:01.807Z,21.4
2023-05-16T05:15:49.243Z,21.4
2023-05-16T05:16:36.666Z,21.5
2023-05-16T05:17:24.444Z,21.5
2023-05-16T05:18:12.128Z,21.6
2023-05-16T05:18:59.704Z,21.7
2023-05-16T05:19:47.139Z,21.8
2023-05-16T05:20:34.522Z,21.8
2023-05-16T05:21:21.939Z,21.9
2023-05-16T05:22:09.353Z,22.0
2023-05-16T05:22:56.731Z,22.1
2023-05-16T05:23:44.174Z,22.1
2023-05-16T05:24:31.651Z,22.2
2023-05-16T05:25:19.099Z,22.2
2023-05-16T05:26:06.497Z,22.3
2023-05-16T05:26:53.936Z,22.3
2023-05-16T05:27:41.300Z,22.4
2023-05-16T05:28:28.739Z,22.5
2023-05-16T05:29:16.182Z,22.5
2023-05-16T05:30:03.566Z,22.6
2023-05-16T05:30:50.996Z,22.6
2023-05-16T05:31:38.449Z,22.6
2023-05-16T05:32:25.864Z,22.6
2023-05-16T05:33:13.319Z,22.7
2023-05-16T05:34:00.784Z,22.7
2023-05-16T05:34:48.193Z,22.8
2023-05-16T05:35:35.601Z,22.8
2023-05-16T05:36:23.085Z,22.8
2023-05-16T05:37:10.515Z,22.8
2023-05-16T05:37:57.903Z,22.9
2023-05-16T05:38:45.348Z,22.9
2023-05-16T05:39:32.722Z,23.0
2023-05-16T05:40:20.178Z,23.0
2023-05-16T05:41:07.556Z,23.0
2023-05-16T05:41:54.946Z,23.0
2023-05-16T05:42:44.130Z,23.0
2023-05-16T05:43:32.814Z,23.1
2023-05-16T05:44:20.219Z,23.1
2023-05-16T05:45:07.647Z,23.1
2023-05-16T05:45:55.174Z,23.2
2023-05-16T05:46:42.615Z,23.2
2023-05-16T05:47:30.063Z,23.3
2023-05-16T05:48:17.513Z,23.3
2023-05-16T05:49:04.968Z,23.3
2023-05-16T05:49:52.377Z,23.3
2023-05-16T05:50:39.786Z,23.3
2023-05-16T05:51:27.163Z,23.3
2023-05-16T05:52:14.555Z,23.4
2023-05-16T05:53:01.927Z,23.4
2023-05-16T05:53:49.429Z,23.5
2023-05-16T05:54:36.832Z,23.5
2023-05-16T05:55:24.263Z,23.5
2023-05-16T05:56:11.708Z,23.5
2023-05-16T05:56:59.118Z,23.6
2023-05-16T05:57:46.708Z,23.6
2023-05-16T05:58:34.176Z,23.6
2023-05-16T05:59:21.663Z,23.6
2023-05-16T06:00:09.096Z,23.6
2023-05-16T06:00:56.521Z,23.6
2023-05-16T06:01:43.989Z,23.6
2023-05-16T06:02:31.615Z,23.7
2023-05-16T06:03:19.174Z,23.7
2023-05-16T06:04:06.819Z,23.7
2023-05-16T06:04:54.283Z,23.8
2023-05-16T06:05:41.752Z,23.8
2023-05-16T06:06:29.224Z,23.8
2023-05-16T06:07:16.660Z,23.8
2023-05-16T06:08:04.078Z,23.8
2023-05-16T06:08:51.595Z,23.9
2023-05-16T06:09:39.025Z,23.9
2023-05-16T06:10:26.444Z,23.9
2023-05-16T06:11:13.852Z,23.9
2023-05-16T06:12:01.290Z,24.0
2023-05-16T06:12:48.775Z,24.0
2023-05-16T06:13:36.180Z,24.0
2023-05-16T06:14:23.584Z,24.1
2023-05-16T06:15:11.003Z,24.0
2023-05-16T06:15:58.417Z,24.0
2023-05-16T06:16:45.891Z,24.1
2023-05-16T06:17:33.411Z,24.1
2023-05-16T06:18:20.925Z,24.1
2023-05-16T06:19:08.378Z,24.1
2023-05-16T06:19:55.880Z,24.1
2023-05-16T06:20:43.291Z,24.1
2023-05-16T06:21:30.763Z,24.1
2023-05-16T06:22:18.232Z,24.2
2023-05-16T06:23:05.675Z,24.2
2023-05-16T06:23:53.096Z,24.2
2023-05-16T06:24:40.529Z,24.2
2023-05-16T06:25:28.204Z,24.2
2023-05-16T06:26:15.900Z,24.3
2023-05-16T06:27:03.363Z,24.3
2023-05-16T06:27:50.820Z,24.3
2023-05-16T06:28:38.228Z,24.3
2023-05-16T06:29:25.650Z,24.3
2023-05-16T06:30:13.059Z,24.3
2023-05-16T06:31:00.536Z,24.3
2023-05-16T06:31:48.052Z,24.3
2023-05-16T06:32:35.674Z,24.3
2023-05-16T06:33:23.115Z,24.3
2023-05-16T06:34:10.557Z,24.3
2023-05-16T06:34:57.971Z,24.3
2023-05-16T06:35:45.407Z,24.3
2023-05-16T06:36:32.839Z,24.3
2023-05-16T06:37:20.270Z,24.3
2023-05-16T06:38:07.748Z,24.3
2023-05-16T06:38:55.190Z,24.3
2023-05-16T06:39:42.652Z,24.3
2023-05-16T06:40:30.104Z,24.3
2023-05-16T06:41:17.527Z,24.3
2023-05-16T06:42:05.014Z,24.3
2023-05-16T06:42:52.461Z,24.3
2023-05-16T06:43:39.917Z,24.3
2023-05-16T06:44:27.380Z,24.3
2023-05-16T06:45:14.825Z,24.2
2023-05-16T06:46:02.282Z,24.2
2023-05-16T06:46:49.843Z,24.2
2023-05-16T06:47:37.735Z,24.2
2023-05-16T06:48:25.379Z,24.1
2023-05-16T06:49:13.138Z,24.1
2023-05-16T06:50:00.695Z,24.0
2023-05-16T06:50:48.139Z,24.0
2023-05-16T06:51:35.653Z,23.9
2023-05-16T06:52:23.119Z,23.9
2023-05-16T06:53:10.620Z,23.8
2023-05-16T06:53:58.073Z,23.8
2023-05-16T06:54:45.602Z,23.7
2023-05-16T06:55:33.055Z,23.7
2023-05-16T06:56:20.505Z,23.7
2023-05-16T06:57:08.000Z,23.7
2023-05-16T06:57:55.532Z,23.6
2023-05-16T06:58:43.098Z,23.6
2023-05-16T06:59:30.798Z,23.6
2023-05-16T07:00:18.405Z,23.6
2023-05-16T07:01:06.510Z,23.6
2023-05-16T07:01:54.218Z,23.6
2023-05-16T07:02:42.086Z,23.6
2023-05-16T07:03:30.292Z,23.6
2023-05-16T07:04:18.164Z,23.5
2023-05-16T07:05:05.845Z,23.4
2023-05-16T07:05:53.367Z,23.4
2023-05-16T07:06:40.853Z,23.4
2023-05-16T07:07:28.320Z,23.3
2023-05-16T07:08:15.778Z,23.3
2023-05-16T07:09:03.242Z,23.2
2023-05-16T07:09:50.748Z,23.2
2023-05-16T07:10:38.205Z,23.2
2023-05-16T07:11:25.670Z,23.1
2023-05-16T07:12:13.150Z,23.1
2023-05-16T07:13:00.642Z,23.1
2023-05-16T07:13:48.119Z,23.0
2023-05-16T07:14:35.561Z,23.0
2023-05-16T07:15:23.030Z,23.0
2023-05-16T07:16:10.525Z,23.0
2023-05-16T07:16:58.144Z,23.0
2023-05-16T07:17:45.713Z,23.0
2023-05-16T07:18:33.466Z,23.0
2023-05-16T07:19:21.214Z,22.9
2023-05-16T07:20:08.756Z,22.9
2023-05-16T07:20:56.257Z,22.9
2023-05-16T07:21:43.760Z,22.9
2023-05-16T07:22:31.230Z,22.9
2023-05-16T07:23:18.702Z,22.9
2023-05-16T07:24:06.175Z,22.9
2023-05-16T07:24:53.674Z,23.0
2023-05-16T07:25:41.153Z,22.9
2023-05-16T07:26:28.754Z,22.9
2023-05-16T07:27:16.227Z,22.9
2023-05-16T07:28:03.716Z,22.9
2023-05-16T07:28:51.176Z,22.8
2023-05-16T07:29:38.839Z,22.9
2023-05-16T07:30:26.324Z,22.8
2023-05-16T07:31:14.083Z,22.8
2023-05-16T07:32:01.642Z,22.8
2023-05-16T07:32:49.609Z,22.7
2023-05-16T07:33:37.218Z,22.7
2023-05-16T07:34:24.745Z,22.7
2023-05-16T07:35:12.195Z,22.7
2023-05-16T07:36:12.010Z,22.7
2023-05-16T07:36:57.073Z,22.7
2023-05-16T07:37:44.520Z,22.7
2023-05-16T07:38:31.986Z,22.7
2023-05-16T07:39:19.484Z,22.7
2023-05-16T07:40:06.972Z,22.7
2023-05-16T07:40:54.439Z,22.7
2023-05-16T07:41:41.924Z,22.7
2023-05-16T07:42:29.413Z,22.6
2023-05-16T07:43:16.872Z,22.7
2023-05-16T07:44:04.358Z,22.7
2023-05-16T07:44:51.838Z,22.7
2023-05-16T07:45:39.309Z,22.6
2023-05-16T07:46:26.861Z,22.7
2023-05-16T07:47:14.390Z,22.6
2023-05-16T07:48:01.954Z,22.7
2023-05-16T07:48:49.626Z,22.7
2023-05-16T07:49:37.106Z,22.7
2023-05-16T07:50:25.064Z,22.7
2023-05-16T07:51:12.555Z,22.7
2023-05-16T07:52:00.036Z,22.7
2023-05-16T07:52:47.509Z,22.7
2023-05-16T07:53:34.997Z,22.8
2023-05-16T07:54:22.526Z,22.7
2023-05-16T07:55:10.041Z,22.7
2023-05-16T07:55:57.538Z,22.8
2023-05-16T07:56:45.106Z,22.7
2023-05-16T07:57:32.525Z,22.7
2023-05-16T07:58:20.027Z,22.7
2023-05-16T07:59:07.728Z,22.7
2023-05-16T07:59:55.204Z,22.7
2023-05-16T08:00:42.903Z,22.7
2023-05-16T08:01:30.360Z,22.6
2023-05-16T08:02:17.886Z,22.7
2023-05-16T08:03:05.479Z,22.7
2023-05-16T08:03:53.327Z,22.7
2023-05-16T08:04:40.836Z,22.7
2023-05-16T08:05:28.601Z,22.7
2023-05-16T08:06:16.349Z,22.7
2023-05-16T08:07:03.858Z,22.8
2023-05-16T08:07:51.311Z,22.8
2023-05-16T08:08:38.763Z,22.8
2023-05-16T08:09:26.237Z,22.8
2023-05-16T08:10:13.809Z,22.7
2023-05-16T08:11:01.465Z,22.8
2023-05-16T08:11:48.974Z,22.8
2023-05-16T08:12:36.697Z,22.8
2023-05-16T08:13:24.161Z,22.8
2023-05-16T08:14:11.720Z,22.8
2023-05-16T08:14:59.246Z,22.8
2023-05-16T08:15:46.840Z,22.8
2023-05-16T08:16:34.570Z,22.8
2023-05-16T08:17:22.191Z,22.8
2023-05-16T08:18:09.734Z,22.8
2023-05-16T08:18:57.262Z,22.8
2023-05-16T08:19:44.774Z,22.8
2023-05-16T08:20:32.334Z,22.8
2023-05-16T08:21:20.078Z,22.8
2023-05-16T08:22:07.533Z,22.8
2023-05-16T08:22:55.003Z,22.8
2023-05-16T08:23:42.539Z,22.8
2023-05-16T08:24:30.316Z,22.8
2023-05-16T08:25:17.800Z,22.9
2023-05-16T08:26:05.284Z,22.9
2023-05-16T08:26:52.784Z,22.9
2023-05-16T08:27:40.244Z,22.9
2023-05-16T08:28:27.726Z,22.9
2023-05-16T08:29:15.172Z,22.9
2023-05-16T08:30:02.615Z,23.0
2023-05-16T08:30:50.070Z,23.0
2023-05-16T08:31:37.596Z,23.0
2023-05-16T08:32:25.459Z,23.0
2023-05-16T08:33:13.088Z,23.0
2023-05-16T08:34:00.566Z,23.0
2023-05-16T08:34:48.078Z,23.0
2023-05-16T08:35:35.597Z,23.1
2023-05-16T08:36:23.157Z,23.1
2023-05-16T08:37:10.878Z,23.1
2023-05-16T08:37:58.467Z,23.1
2023-05-16T08:38:45.995Z,23.1
2023-05-16T08:39:33.494Z,23.2
2023-05-16T08:40:21.152Z,23.2
2023-05-16T08:41:08.763Z,23.2
2023-05-16T08:41:56.368Z,23.2
2023-05-16T08:42:45.382Z,23.2
2023-05-16T08:43:33.026Z,23.2
2023-05-16T08:44:20.535Z,23.2
2023-05-16T08:45:08.275Z,23.2
2023-05-16T08:45:55.746Z,23.2
2023-05-16T08:46:43.286Z,23.2
2023-05-16T08:47:30.786Z,23.2
2023-05-16T08:48:18.575Z,23.2
2023-05-16T08:49:06.118Z,23.3
2023-05-16T08:49:53.563Z,23.3
2023-05-16T08:50:41.007Z,23.3
2023-05-16T08:51:28.479Z,23.3
2023-05-16T08:52:15.927Z,23.3
2023-05-16T08:53:03.383Z,23.3
2023-05-16T08:53:50.862Z,23.4
2023-05-16T08:54:38.332Z,23.3
2023-05-16T08:55:25.964Z,23.3
2023-05-16T08:56:13.642Z,23.4
2023-05-16T08:57:01.119Z,23.4
2023-05-16T08:57:48.790Z,23.4
2023-05-16T08:58:36.266Z,23.4
2023-05-16T08:59:23.959Z,23.4
2023-05-16T09:00:11.810Z,23.5
2023-05-16T09:00:59.962Z,23.5
2023-05-16T09:01:47.971Z,23.5
2023-05-16T09:02:35.907Z,23.5
2023-05-16T09:03:23.498Z,23.5
2023-05-16T09:04:11.012Z,23.5
2023-05-16T09:04:58.637Z,23.5
2023-05-16T09:05:46.189Z,23.6
2023-05-16T09:06:34.049Z,23.6
2023-05-16T09:07:21.641Z,23.5
2023-05-16T09:08:09.109Z,23.6
2023-05-16T09:08:56.610Z,23.6
2023-05-16T09:09:44.115Z,23.6
2023-05-16T09:10:31.569Z,23.6
2023-05-16T09:11:19.022Z,23.6
2023-05-16T09:12:06.558Z,23.6
2023-05-16T09:12:54.019Z,23.6
2023-05-16T09:13:41.514Z,23.6
2023-05-16T09:14:29.197Z,23.6
2023-05-16T09:15:17.127Z,23.6
2023-05-16T09:16:05.149Z,23.6
2023-05-16T09:16:52.897Z,23.7
2023-05-16T09:17:42.618Z,23.7
2023-05-16T09:18:30.594Z,23.7
2023-05-16T09:19:18.142Z,23.7
2023-05-16T09:20:05.796Z,23.7
2023-05-16T09:20:53.265Z,23.7
2023-05-16T09:21:40.695Z,23.8
2023-05-16T09:22:28.179Z,23.9
2023-05-16T09:23:15.668Z,23.9
2023-05-16T09:24:03.148Z,23.9
2023-05-16T09:24:50.601Z,23.9
2023-05-16T09:25:38.249Z,23.9
2023-05-16T09:26:27.574Z,23.9
2023-05-16T09:27:15.060Z,24.0
2023-05-16T09:28:03.351Z,24.0
2023-05-16T09:28:51.287Z,24.0
2023-05-16T09:29:38.790Z,24.0
2023-05-16T09:30:26.245Z,24.0
2023-05-16T09:31:13.768Z,24.0
2023-05-16T09:32:01.255Z,24.0
2023-05-16T09:32:48.891Z,24.0
2023-05-16T09:33:36.374Z,24.1
2023-05-16T09:34:23.880Z,24.1
2023-05-16T09:35:11.367Z,24.1
2023-05-16T09:35:59.125Z,24.1
2023-05-16T09:36:46.706Z,24.1
2023-05-16T09:37:35.392Z,24.1
2023-05-16T09:38:23.046Z,24.2
2023-05-16T09:39:10.744Z,24.2
2023-05-16T09:39:58.227Z,24.2
2023-05-16T09:40:45.928Z,24.3
2023-05-16T09:41:33.403Z,24.3
2023-05-16T09:42:20.908Z,24.3
2023-05-16T09:43:08.423Z,24.4
2023-05-16T09:43:55.935Z,24.4
2023-05-16T09:44:43.508Z,24.4
2023-05-16T09:45:31.397Z,24.4
2023-05-16T09:46:19.096Z,24.5
2023-05-16T09:47:06.618Z,24.5
2023-05-16T09:47:54.133Z,24.6
2023-05-16T09:48:42.060Z,24.6
2023-05-16T09:49:29.774Z,24.7
2023-05-16T09:50:17.639Z,24.7
2023-05-16T09:51:05.697Z,24.8
2023-05-16T09:51:53.142Z,24.8
2023-05-16T09:52:40.615Z,24.8
2023-05-16T09:53:28.112Z,24.9
2023-05-16T09:54:15.623Z,24.9
2023-05-16T09:55:03.085Z,24.9
2023-05-16T09:55:50.562Z,25.0
2023-05-16T09:56:38.050Z,25.0
2023-05-16T09:57:25.535Z,25.0
2023-05-16T09:58:13.063Z,25.0
2023-05-16T09:59:00.551Z,25.0
2023-05-16T09:59:48.059Z,25.1
2023-05-16T10:00:35.774Z,25.1
2023-05-16T10:01:23.297Z,25.1
2023-05-16T10:02:10.910Z,25.1
2023-05-16T10:02:58.915Z,25.1
2023-05-16T10:03:47.456Z,25.1
2023-05-16T10:04:35.104Z,25.1
2023-05-16T10:05:22.612Z,25.1
2023-05-16T10:06:10.086Z,25.1
2023-05-16T10:06:57.947Z,25.1
2023-05-16T10:07:45.406Z,25.1
2023-05-16T10:08:32.874Z,25.2
2023-05-16T10:09:20.366Z,25.2
2023-05-16T10:10:07.868Z,25.2
2023-05-16T10:10:55.319Z,25.2
2023-05-16T10:11:42.788Z,25.2
2023-05-16T10:12:30.465Z,25.3
2023-05-16T10:13:17.963Z,25.3
2023-05-16T10:14:07.776Z,25.2
2023-05-16T10:14:55.418Z,25.3
2023-05-16T10:15:42.866Z,25.3
2023-05-16T10:16:30.463Z,25.2
2023-05-16T10:17:18.042Z,25.3
2023-05-16T10:18:05.515Z,25.2
2023-05-16T10:18:53.362Z,25.2
2023-05-16T10:19:40.950Z,25.3
2023-05-16T10:20:28.562Z,25.2
2023-05-16T10:21:16.503Z,25.2
2023-05-16T10:22:04.308Z,25.2
2023-05-16T10:22:52.328Z,25.2
2023-05-16T10:23:39.983Z,25.2
2023-05-16T10:24:27.445Z,25.2
2023-05-16T10:25:14.936Z,25.2
2023-05-16T10:26:02.429Z,25.2
2023-05-16T10:26:49.941Z,25.2
2023-05-16T10:27:37.427Z,25.3
2023-05-16T10:28:24.947Z,25.3
2023-05-16T10:29:12.535Z,25.3
2023-05-16T10:30:00.229Z,25.3
2023-05-16T10:30:48.216Z,25.3
2023-05-16T10:31:35.758Z,25.3
2023-05-16T10:32:23.378Z,25.3
2023-05-16T10:33:11.090Z,25.3
2023-05-16T10:33:58.574Z,25.3
2023-05-16T10:34:46.478Z,25.3
2023-05-16T10:35:33.976Z,25.3
2023-05-16T10:36:21.613Z,25.3
2023-05-16T10:37:11.267Z,25.3
2023-05-16T10:37:59.196Z,25.4
2023-05-16T10:38:47.194Z,25.4
2023-05-16T10:39:34.790Z,25.4
2023-05-16T10:40:22.266Z,25.4
2023-05-16T10:41:09.740Z,25.5
2023-05-16T10:41:57.207Z,25.5
2023-05-16T10:42:44.681Z,25.6
2023-05-16T10:43:32.206Z,25.5
2023-05-16T10:44:19.900Z,25.6
2023-05-16T10:45:07.341Z,25.5
2023-05-16T10:45:54.878Z,25.6
2023-05-16T10:46:42.484Z,25.6
2023-05-16T10:47:30.474Z,25.6
2023-05-16T10:48:18.220Z,25.6
2023-05-16T10:49:05.769Z,25.6
2023-05-16T10:49:53.273Z,25.6
2023-05-16T10:50:40.751Z,25.7
2023-05-16T10:51:28.249Z,25.7
2023-05-16T10:52:15.745Z,25.7
2023-05-16T10:53:03.224Z,25.7
2023-05-16T10:53:51.806Z,25.7
2023-05-16T10:54:39.456Z,25.7
2023-05-16T10:55:27.079Z,25.8
2023-05-16T10:56:15.065Z,25.8
2023-05-16T10:57:02.996Z,25.8
2023-05-16T10:57:50.684Z,25.8
2023-05-16T10:58:38.155Z,25.8
2023-05-16T10:59:25.619Z,25.8
2023-05-16T11:00:13.106Z,25.8
2023-05-16T11:01:01.258Z,25.9
2023-05-16T11:01:48.941Z,25.9
2023-05-16T11:02:36.755Z,25.9
2023-05-16T11:03:24.721Z,25.9
2023-05-16T11:04:12.437Z,25.9
2023-05-16T11:05:00.192Z,25.9
2023-05-16T11:05:48.095Z,25.9
2023-05-16T11:06:35.793Z,25.9
2023-05-16T11:07:23.460Z,25.9
2023-05-16T11:08:11.161Z,25.9
2023-05-16T11:08:58.828Z,25.9
2023-05-16T11:09:46.755Z,25.9
2023-05-16T11:10:34.297Z,25.9
2023-05-16T11:11:21.820Z,26.0
2023-05-16T11:12:09.297Z,26.0
2023-05-16T11:12:56.800Z,25.9
2023-05-16T11:13:44.982Z,26.0
2023-05-16T11:14:32.788Z,25.9
2023-05-16T11:15:20.557Z,26.0
2023-05-16T11:16:08.088Z,25.9
2023-05-16T11:16:55.623Z,26.0
2023-05-16T11:17:45.501Z,26.0
2023-05-16T11:18:33.890Z,26.0
2023-05-16T11:19:21.554Z,26.0
2023-05-16T11:20:09.127Z,26.0
2023-05-16T11:20:56.638Z,26.0
2023-05-16T11:21:44.125Z,26.0
2023-05-16T11:22:31.618Z,26.0
2023-05-16T11:23:19.078Z,26.0
2023-05-16T11:24:06.566Z,26.0
2023-05-16T11:24:54.082Z,26.0
2023-05-16T11:25:44.616Z,26.0
2023-05-16T11:26:32.094Z,26.1
2023-05-16T11:27:19.624Z,26.1
2023-05-16T11:28:07.085Z,26.1
2023-05-16T11:28:54.571Z,26.1
2023-05-16T11:29:42.654Z,26.1
2023-05-16T11:30:30.159Z,26.1
2023-05-16T11:31:17.668Z,26.1
2023-05-16T11:32:05.275Z,26.1
2023-05-16T11:32:53.407Z,26.1
2023-05-16T11:33:40.888Z,26.1
2023-05-16T11:34:31.088Z,26.1
2023-05-16T11:35:18.573Z,26.1
2023-05-16T11:36:15.023Z,26.1
2023-05-16T11:37:03.481Z,26.2
2023-05-16T11:37:50.953Z,26.1
2023-05-16T11:38:38.407Z,26.2
2023-05-16T11:39:26.007Z,26.2
2023-05-16T11:40:13.638Z,26.2
2023-05-16T11:41:01.828Z,26.1
2023-05-16T11:41:49.294Z,26.2
2023-05-16T11:42:36.778Z,26.1
2023-05-16T11:43:24.240Z,26.2
2023-05-16T11:44:11.711Z,26.2
2023-05-16T11:44:59.180Z,26.2
2023-05-16T11:45:46.736Z,26.2
2023-05-16T11:46:34.386Z,26.2
2023-05-16T11:47:22.006Z,26.2
2023-05-16T11:48:10.118Z,26.2
2023-05-16T11:48:59.012Z,26.2
2023-05-16T11:49:48.831Z,26.2
2023-05-16T11:50:37.165Z,26.2
2023-05-16T11:51:24.685Z,26.2
2023-05-16T11:52:12.236Z,26.2
2023-05-16T11:52:59.714Z,26.2
2023-05-16T11:53:47.195Z,26.2
2023-05-16T11:54:34.673Z,26.2
2023-05-16T11:55:36.800Z,26.2
2023-05-16T11:56:19.621Z,26.2
2023-05-16T11:57:07.197Z,26.2
2023-05-16T11:57:54.743Z,26.2
2023-05-16T11:58:42.226Z,26.2
2023-05-16T11:59:29.936Z,26.2
2023-05-16T12:00:17.542Z,26.2
2023-05-16T12:01:05.066Z,26.2
2023-05-16T12:01:52.584Z,26.2
2023-05-16T12:02:40.211Z,26.3
2023-05-16T12:03:27.946Z,26.3
2023-05-16T12:04:15.688Z,26.3
2023-05-16T12:05:03.328Z,26.3
2023-05-16T12:05:50.923Z,26.3
2023-05-16T12:06:38.625Z,26.3
2023-05-16T12:07:26.112Z,26.3
2023-05-16T12:08:13.572Z,26.3
2023-05-16T12:09:01.043Z,26.3
2023-05-16T12:09:48.504Z,26.3
2023-05-16T12:10:35.957Z,26.3
2023-05-16T12:11:23.679Z,26.3
2023-05-16T12:12:11.307Z,26.3
2023-05-16T12:12:58.805Z,26.3
2023-05-16T12:13:46.443Z,26.2
2023-05-16T12:14:34.021Z,26.2
2023-05-16T12:15:21.664Z,26.2
2023-05-16T12:16:09.205Z,26.2
2023-05-16T12:16:56.779Z,26.2
2023-05-16T12:17:44.348Z,26.2
2023-05-16T12:18:32.223Z,26.2
2023-05-16T12:19:19.728Z,26.2
2023-05-16T12:20:07.475Z,26.2
2023-05-16T12:20:54.928Z,26.2
2023-05-16T12:21:42.573Z,26.2
2023-05-16T12:22:30.095Z,26.2
2023-05-16T12:23:17.599Z,26.2
2023-05-16T12:24:05.052Z,26.2
2023-05-16T12:24:52.525Z,26.2
2023-05-16T12:25:40.056Z,26.2
2023-05-16T12:26:27.534Z,26.2
2023-05-16T12:27:15.009Z,26.2
2023-05-16T12:28:02.473Z,26.2
2023-05-16T12:28:49.911Z,26.2
2023-05-16T12:29:37.385Z,26.3
2023-05-16T12:30:25.466Z,26.2
2023-05-16T12:31:23.169Z,26.2
2023-05-16T12:32:11.106Z,26.2
2023-05-16T12:32:58.771Z,26.2
2023-05-16T12:33:46.375Z,26.2
2023-05-16T12:34:33.980Z,26.2
2023-05-16T12:35:21.429Z,26.2
2023-05-16T12:36:08.892Z,26.2
2023-05-16T12:36:56.399Z,26.2
2023-05-16T12:37:43.880Z,26.2
2023-05-16T12:38:33.325Z,26.2
2023-05-16T12:39:30.981Z,26.2
2023-05-16T12:40:19.762Z,26.2
2023-05-16T12:41:07.876Z,26.2
2023-05-16T12:41:55.454Z,26.2
2023-05-16T12:42:43.707Z,26.2
2023-05-16T12:43:31.206Z,26.3
2023-05-16T12:44:18.757Z,26.3
2023-05-16T12:45:06.398Z,26.4
2023-05-16T12:45:53.933Z,26.4
2023-05-16T12:46:41.486Z,26.4
2023-05-16T12:47:29.211Z,26.4
2023-05-16T12:48:16.732Z,26.4
2023-05-16T12:49:04.259Z,26.4
2023-05-16T12:49:51.746Z,26.4
2023-05-16T12:50:40.150Z,26.4
2023-05-16T12:51:27.670Z,26.4
2023-05-16T12:52:17.468Z,26.4
2023-05-16T12:53:04.966Z,26.4
2023-05-16T12:54:08.965Z,26.4
2023-05-16T12:54:49.910Z,26.4
2023-05-16T12:55:37.423Z,26.4
2023-05-16T12:56:24.984Z,26.4
2023-05-16T12:57:12.492Z,26.4
2023-05-16T12:58:00.132Z,26.4
2023-05-16T12:58:48.197Z,26.4
2023-05-16T12:59:35.892Z,26.4
2023-05-16T13:00:23.516Z,26.4
2023-05-16T13:01:11.944Z,26.4
2023-05-16T13:02:00.136Z,26.5
2023-05-16T13:02:47.765Z,26.5
2023-05-16T13:03:36.323Z,26.5
2023-05-16T13:04:24.146Z,26.4
2023-05-16T13:05:11.759Z,26.4
2023-05-16T13:05:59.428Z,26.4
2023-05-16T13:06:58.668Z,26.4
2023-05-16T13:07:44.356Z,26.4
2023-05-16T13:08:31.851Z,26.4
2023-05-16T13:09:19.311Z,26.4
2023-05-16T13:10:06.796Z,26.4
2023-05-16T13:10:56.531Z,26.4
2023-05-16T13:11:44.003Z,26.4
2023-05-16T13:12:31.481Z,26.4
2023-05-16T13:13:28.708Z,26.4
2023-05-16T13:14:16.639Z,26.4
2023-05-16T13:15:04.392Z,26.4
2023-05-16T13:15:51.958Z,26.4
2023-05-16T13:16:39.747Z,26.4
2023-05-16T13:17:27.439Z,26.4
2023-05-16T13:18:14.973Z,26.5
2023-05-16T13:19:03.179Z,26.5
2023-05-16T13:19:50.694Z,26.5
2023-05-16T13:20:38.173Z,26.5
2023-05-16T13:21:25.884Z,26.5
2023-05-16T13:22:13.374Z,26.4
2023-05-16T13:23:00.846Z,26.5
2023-05-16T13:23:48.314Z,26.5
2023-05-16T13:24:36.040Z,26.5
2023-05-16T13:25:23.551Z,26.5
2023-05-16T13:26:11.118Z,26.5
2023-05-16T13:26:58.590Z,26.5
2023-05-16T13:27:46.049Z,26.5
2023-05-16T13:28:33.495Z,26.5
2023-05-16T13:29:21.188Z,26.5
2023-05-16T13:30:08.817Z,26.5
2023-05-16T13:30:56.688Z,26.5
2023-05-16T13:31:44.953Z,26.6
2023-05-16T13:32:32.534Z,26.5
2023-05-16T13:33:20.258Z,26.5
2023-05-16T13:34:07.764Z,26.6
2023-05-16T13:34:55.271Z,26.6
2023-05-16T13:35:42.730Z,26.6
2023-05-16T13:36:38.414Z,26.6
2023-05-16T13:37:27.850Z,26.6
2023-05-16T13:38:15.487Z,26.6
2023-05-16T13:39:03.193Z,26.6
2023-05-16T13:39:50.649Z,26.6
2023-05-16T13:40:38.153Z,26.6
2023-05-16T13:41:25.794Z,26.6
2023-05-16T13:42:13.247Z,26.6
2023-05-16T13:43:00.787Z,26.6
2023-05-16T13:43:48.334Z,26.6
2023-05-16T13:44:36.044Z,26.6
2023-05-16T13:45:23.504Z,26.6
2023-05-16T13:46:11.048Z,26.6
2023-05-16T13:46:58.770Z,26.6
2023-05-16T13:47:48.071Z,26.6
2023-05-16T13:48:35.848Z,26.6
2023-05-16T13:49:23.354Z,26.6
2023-05-16T13:50:11.009Z,26.6
2023-05-16T13:50:58.482Z,26.6
2023-05-16T13:51:46.035Z,26.6
2023-05-16T13:52:34.610Z,26.6
2023-05-16T13:53:23.054Z,26.6
2023-05-16T13:54:10.557Z,26.6
2023-05-16T13:54:58.048Z,26.6
2023-05-16T13:55:45.505Z,26.6
2023-05-16T13:56:33.004Z,26.6
2023-05-16T13:57:20.485Z,26.6
2023-05-16T13:58:08.233Z,26.6
2023-05-16T13:59:03.792Z,26.6
2023-05-16T14:00:46.041Z,26.6
2023-05-16T14:01:33.992Z,26.6
2023-05-16T14:02:22.030Z,26.6
2023-05-16T14:03:09.760Z,26.6
2023-05-16T14:03:57.552Z,26.6
2023-05-16T14:04:46.714Z,26.6
2023-05-16T14:05:35.279Z,26.6
2023-05-16T14:06:23.034Z,26.6
2023-05-16T14:07:10.769Z,26.6
2023-05-16T14:07:58.725Z,26.6
2023-05-16T14:08:46.306Z,26.6
2023-05-16T14:09:33.783Z,26.6
2023-05-16T14:10:21.381Z,26.7
2023-05-16T14:11:08.862Z,26.7
2023-05-16T14:11:56.294Z,26.6
2023-05-16T14:12:43.802Z,26.7
2023-05-16T14:13:31.265Z,26.6
2023-05-16T14:14:18.743Z,26.6
2023-05-16T14:15:06.362Z,26.7
2023-05-16T14:15:53.895Z,26.6
2023-05-16T14:16:41.504Z,26.7
2023-05-16T14:17:29.250Z,26.7
2023-05-16T14:18:16.925Z,26.6
2023-05-16T14:19:04.477Z,26.6
2023-05-16T14:19:51.961Z,26.6
2023-05-16T14:20:39.450Z,26.6
2023-05-16T14:21:26.946Z,26.6
2023-05-16T14:22:14.444Z,26.6
2023-05-16T14:23:01.932Z,26.6
2023-05-16T14:23:49.402Z,26.7
2023-05-16T14:24:36.889Z,26.7
2023-05-16T14:25:24.376Z,26.7
2023-05-16T14:26:11.890Z,26.7
2023-05-16T14:26:59.345Z,26.7
2023-05-16T14:27:47.457Z,26.7
2023-05-16T14:28:34.914Z,26.7
2023-05-16T14:29:22.474Z,26.7
2023-05-16T14:30:10.000Z,26.7
2023-05-16T14:30:57.529Z,26.7